createdAt,value
2022-12-03T00:02:13.739Z,102368.94
2022-12-03T00:04:40.191Z,102367.91
2022-12-03T00:07:06.606Z,102355.06
2022-12-03T00:09:32.972Z,102358.44
2022-12-03T00:11:59.383Z,102354.09
2022-12-03T00:14:25.688Z,102356.56
2022-12-03T00:16:52.033Z,102357.25
2022-12-03T00:19:18.350Z,102359.06
2022-12-03T00:21:44.664Z,102353.88
2022-12-03T00:24:10.991Z,102352.03
2022-12-03T00:26:37.346Z,102357.47
2022-12-03T00:29:03.734Z,102348.84
2022-12-03T00:31:30.152Z,102348.78
2022-12-03T00:33:56.606Z,102344.59
2022-12-03T00:36:22.994Z,102345.59
2022-12-03T00:38:49.361Z,102343.75
2022-12-03T00:41:15.741Z,102339.50
2022-12-03T00:43:42.095Z,102340.22
2022-12-03T00:46:08.535Z,102338.41
2022-12-03T00:48:34.971Z,102347.09
2022-12-03T00:51:01.273Z,102333.44
2022-12-03T00:53:27.823Z,102336.75
2022-12-03T00:55:54.222Z,102339.97
2022-12-03T00:58:20.516Z,102341.59
2022-12-03T01:00:46.888Z,102340.81
2022-12-03T01:03:13.329Z,102337.22
2022-12-03T01:05:39.678Z,102339.88
2022-12-03T01:08:06.108Z,102336.34
2022-12-03T01:10:32.504Z,102341.47
2022-12-03T01:12:58.849Z,102346.97
2022-12-03T01:15:25.308Z,102329.97
2022-12-03T01:17:54.126Z,102333.28
2022-12-03T01:20:20.527Z,102342.56
2022-12-03T01:22:46.936Z,102335.81
2022-12-03T01:25:13.271Z,102330.38
2022-12-03T01:27:39.655Z,102338.16
2022-12-03T01:30:06.732Z,102327.63
2022-12-03T01:32:33.163Z,102331.16
2022-12-03T01:34:59.613Z,102331.16
2022-12-03T01:37:26.255Z,102334.78
2022-12-03T01:39:52.703Z,102328.72
2022-12-03T01:42:28.851Z,102324.19
2022-12-03T01:44:57.745Z,102323.31
2022-12-03T01:47:33.217Z,102327.38
2022-12-03T01:50:15.424Z,102319.66
2022-12-03T01:52:42.377Z,102315.44
2022-12-03T01:55:14.704Z,102311.88
2022-12-03T01:57:44.795Z,102319.06
2022-12-03T02:00:19.517Z,102322.50
2022-12-03T02:02:48.337Z,102316.53
2022-12-03T02:05:16.511Z,102312.97
2022-12-03T02:07:42.847Z,102323.53
2022-12-03T02:10:12.858Z,102318.22
2022-12-03T02:13:02.769Z,102316.47
2022-12-03T02:15:29.560Z,102319.38
2022-12-03T02:17:56.662Z,102319.13
2022-12-03T02:20:23.226Z,102310.69
2022-12-03T02:23:09.339Z,102311.44
2022-12-03T02:25:36.703Z,102309.09
2022-12-03T02:28:04.942Z,102311.47
2022-12-03T02:30:31.946Z,102309.88
2022-12-03T02:32:58.474Z,102315.16
2022-12-03T02:35:28.733Z,102320.34
2022-12-03T02:37:59.244Z,102313.41
2022-12-03T02:40:28.879Z,102313.31
2022-12-03T02:42:58.703Z,102302.66
2022-12-03T02:45:32.110Z,102299.59
2022-12-03T02:48:03.557Z,102307.38
2022-12-03T02:50:35.862Z,102310.75
2022-12-03T02:53:05.836Z,102307.97
2022-12-03T02:55:37.000Z,102305.69
2022-12-03T02:58:05.059Z,102299.59
2022-12-03T03:00:32.763Z,102308.22
2022-12-03T03:03:00.423Z,102307.19
2022-12-03T03:05:27.102Z,102310.09
2022-12-03T03:07:53.790Z,102294.47
2022-12-03T03:10:23.315Z,102296.19
2022-12-03T03:12:52.532Z,102296.13
2022-12-03T03:15:19.069Z,102296.28
2022-12-03T03:17:45.720Z,102296.19
2022-12-03T03:20:13.407Z,102292.97
2022-12-03T03:22:42.584Z,102308.69
2022-12-03T03:25:12.014Z,102302.09
2022-12-03T03:27:40.113Z,102308.84
2022-12-03T03:30:08.011Z,102306.88
2022-12-03T03:32:35.399Z,102300.19
2022-12-03T03:35:01.993Z,102300.97
2022-12-03T03:37:41.264Z,102293.69
2022-12-03T03:40:08.212Z,102294.69
2022-12-03T03:42:35.346Z,102295.56
2022-12-03T03:45:02.048Z,102280.22
2022-12-03T03:47:28.836Z,102290.63
2022-12-03T03:49:55.526Z,102283.00
2022-12-03T03:52:22.521Z,102277.81
2022-12-03T03:54:49.105Z,102277.03
2022-12-03T03:57:15.662Z,102274.31
2022-12-03T03:59:42.151Z,102282.28
2022-12-03T04:02:18.561Z,102272.75
2022-12-03T04:04:45.207Z,102273.47
2022-12-03T04:07:11.606Z,102276.13
2022-12-03T04:09:37.908Z,102270.97
2022-12-03T04:12:23.381Z,102276.13
2022-12-03T04:14:49.751Z,102279.69
2022-12-03T04:17:16.163Z,102271.97
2022-12-03T04:19:42.654Z,102270.88
2022-12-03T04:22:27.460Z,102273.78
2022-12-03T04:25:13.783Z,102277.25
2022-12-03T04:27:58.583Z,102273.84
2022-12-03T04:30:25.177Z,102279.09
2022-12-03T04:33:09.945Z,102278.25
2022-12-03T04:35:45.123Z,102280.19
2022-12-03T04:38:12.965Z,102267.09
2022-12-03T04:40:59.646Z,102274.16
2022-12-03T04:43:28.868Z,102274.28
2022-12-03T04:45:55.318Z,102261.63
2022-12-03T04:48:21.773Z,102270.97
2022-12-03T04:50:48.183Z,102274.41
2022-12-03T04:53:14.697Z,102273.63
2022-12-03T04:55:41.056Z,102274.72
2022-12-03T04:58:07.452Z,102274.75
2022-12-03T05:00:33.836Z,102269.16
2022-12-03T05:03:00.233Z,102265.66
2022-12-03T05:05:26.630Z,102265.59
2022-12-03T05:07:53.007Z,102272.53
2022-12-03T05:10:19.426Z,102270.91
2022-12-03T05:12:45.773Z,102274.41
2022-12-03T05:15:12.112Z,102272.72
2022-12-03T05:17:38.426Z,102270.25
2022-12-03T05:20:23.709Z,102271.09
2022-12-03T05:22:50.003Z,102262.53
2022-12-03T05:25:16.483Z,102267.41
2022-12-03T05:27:42.789Z,102261.31
2022-12-03T05:30:09.725Z,102253.28
2022-12-03T05:32:36.141Z,102258.59
2022-12-03T05:35:02.524Z,102254.59
2022-12-03T05:37:28.910Z,102249.19
2022-12-03T05:39:55.353Z,102241.41
2022-12-03T05:42:40.405Z,102246.81
2022-12-03T05:45:07.312Z,102244.13
2022-12-03T05:47:33.654Z,102244.13
2022-12-03T05:50:00.009Z,102245.09
2022-12-03T05:52:26.973Z,102243.66
2022-12-03T05:54:53.672Z,102247.81
2022-12-03T05:57:20.320Z,102247.03
2022-12-03T05:59:46.682Z,102236.13
2022-12-03T06:02:13.067Z,102245.41
2022-12-03T06:04:39.585Z,102243.50
2022-12-03T06:07:09.619Z,102241.94
2022-12-03T06:09:38.763Z,102241.78
2022-12-03T06:12:06.402Z,102236.22
2022-12-03T06:14:34.748Z,102233.75
2022-12-03T06:17:01.845Z,102228.56
2022-12-03T06:19:28.296Z,102225.13
2022-12-03T06:21:55.391Z,102234.53
2022-12-03T06:24:21.759Z,102227.78
2022-12-03T06:26:48.153Z,102221.78
2022-12-03T06:29:14.473Z,102227.00
2022-12-03T06:31:40.807Z,102220.22
2022-12-03T06:34:07.317Z,102222.81
2022-12-03T06:36:33.714Z,102227.22
2022-12-03T06:39:00.074Z,102225.41
2022-12-03T06:41:26.460Z,102220.53
2022-12-03T06:43:52.754Z,102220.63
2022-12-03T06:46:19.182Z,102229.22
2022-12-03T06:48:45.555Z,102217.94
2022-12-03T06:51:11.905Z,102207.69
2022-12-03T06:53:38.271Z,102210.94
2022-12-03T06:56:04.930Z,102213.28
2022-12-03T06:58:31.405Z,102216.69
2022-12-03T07:00:57.755Z,102219.22
2022-12-03T07:03:24.257Z,102214.78
2022-12-03T07:05:50.744Z,102217.56
2022-12-03T07:08:17.246Z,102207.25
2022-12-03T07:10:43.672Z,102221.78
2022-12-03T07:13:10.005Z,102224.31
2022-12-03T07:15:36.396Z,102225.97
2022-12-03T07:18:02.807Z,102226.19
2022-12-03T07:20:29.251Z,102226.91
2022-12-03T07:22:55.651Z,102224.34
2022-12-03T07:25:23.696Z,102227.00
2022-12-03T07:27:50.421Z,102224.63
2022-12-03T07:30:17.061Z,102229.84
2022-12-03T07:32:43.452Z,102231.72
2022-12-03T07:35:10.155Z,102236.91
2022-12-03T07:37:36.876Z,102233.38
2022-12-03T07:40:04.250Z,102232.50
2022-12-03T07:42:30.612Z,102239.59
2022-12-03T07:44:56.957Z,102238.56
2022-12-03T07:47:23.519Z,102248.00
2022-12-03T07:49:49.941Z,102236.66
2022-12-03T07:52:16.344Z,102227.94
2022-12-03T07:54:42.704Z,102235.03
2022-12-03T07:57:09.087Z,102241.00
2022-12-03T07:59:35.433Z,102248.84
2022-12-03T08:02:02.562Z,102241.22
2022-12-03T08:04:29.066Z,102250.66
2022-12-03T08:06:55.487Z,102243.06
2022-12-03T08:09:21.774Z,102234.25
2022-12-03T08:11:49.140Z,102249.72
2022-12-03T08:14:18.627Z,102247.28
2022-12-03T08:16:47.247Z,102249.97
2022-12-03T08:19:16.449Z,102238.78
2022-12-03T08:21:42.936Z,102241.25
2022-12-03T08:24:18.557Z,102242.09
2022-12-03T08:26:46.758Z,102243.06
2022-12-03T08:29:18.377Z,102242.88
2022-12-03T08:31:49.484Z,102243.66
2022-12-03T08:34:19.939Z,102247.28
2022-12-03T08:36:47.734Z,102241.38
2022-12-03T08:39:28.518Z,102239.50
2022-12-03T08:42:18.633Z,102240.94
2022-12-03T08:44:44.956Z,102243.06
2022-12-03T08:47:22.335Z,102242.00
2022-12-03T08:50:07.244Z,102244.53
2022-12-03T08:52:34.642Z,102233.44
2022-12-03T08:55:30.552Z,102241.00
2022-12-03T08:57:57.987Z,102227.06
2022-12-03T09:00:24.781Z,102236.75
2022-12-03T09:02:53.300Z,102224.56
2022-12-03T09:05:22.972Z,102231.69
2022-12-03T09:07:49.480Z,102225.41
2022-12-03T09:10:16.069Z,102218.78
2022-12-03T09:12:42.378Z,102225.81
2022-12-03T09:15:09.030Z,102219.84
2022-12-03T09:17:35.508Z,102223.47
2022-12-03T09:20:02.061Z,102215.81
2022-12-03T09:22:28.456Z,102216.69
2022-12-03T09:24:55.018Z,102213.31
2022-12-03T09:27:22.654Z,102219.22
2022-12-03T09:29:50.227Z,102207.03
2022-12-03T09:32:18.492Z,102216.69
2022-12-03T09:34:45.166Z,102224.56
2022-12-03T09:37:11.483Z,102230.06
2022-12-03T09:39:37.859Z,102235.00
2022-12-03T09:42:04.706Z,102230.13
2022-12-03T09:44:34.052Z,102228.44
2022-12-03T09:47:01.764Z,102235.72
2022-12-03T09:49:30.432Z,102227.00
2022-12-03T09:51:58.853Z,102222.88
2022-12-03T09:54:27.778Z,102228.00
2022-12-03T09:56:55.999Z,102223.69
2022-12-03T09:59:25.430Z,102211.91
2022-12-03T10:01:53.112Z,102216.19
2022-12-03T10:04:20.249Z,102214.31
2022-12-03T10:06:47.254Z,102207.44
2022-12-03T10:09:17.386Z,102213.41
2022-12-03T10:11:43.956Z,102204.78
2022-12-03T10:14:14.025Z,102209.91
2022-12-03T10:16:41.594Z,102211.66
2022-12-03T10:19:18.497Z,102215.91
2022-12-03T10:21:44.853Z,102213.47
2022-12-03T10:24:18.508Z,102215.09
2022-12-03T10:26:46.217Z,102210.09
2022-12-03T10:29:33.140Z,102202.19
2022-12-03T10:32:01.454Z,102203.41
2022-12-03T10:34:36.067Z,102199.00
2022-12-03T10:37:19.934Z,102193.94
2022-12-03T10:39:59.481Z,102192.53
2022-12-03T10:42:28.812Z,102183.09
2022-12-03T10:45:19.006Z,102182.28
2022-12-03T10:48:12.790Z,102180.47
2022-12-03T10:50:51.360Z,102170.03
2022-12-03T10:53:19.199Z,102170.69
2022-12-03T10:55:46.997Z,102166.19
2022-12-03T10:58:25.413Z,102166.88
2022-12-03T11:00:54.071Z,102161.69
2022-12-03T11:03:24.098Z,102159.28
2022-12-03T11:05:51.936Z,102151.50
2022-12-03T11:08:24.338Z,102146.06
2022-12-03T11:11:23.488Z,102150.41
2022-12-03T11:13:55.251Z,102142.09
2022-12-03T11:16:39.729Z,102145.28
2022-12-03T11:19:12.222Z,102140.88
2022-12-03T11:22:00.365Z,102139.34
2022-12-03T11:24:26.688Z,102129.84
2022-12-03T11:26:52.927Z,102130.84
2022-12-03T11:29:48.034Z,102125.38
2022-12-03T11:32:39.618Z,102123.84
2022-12-03T11:35:35.746Z,102122.81
2022-12-03T11:38:37.630Z,102129.84
2022-12-03T11:41:24.489Z,102119.75
2022-12-03T11:43:53.769Z,102124.72
2022-12-03T11:46:23.024Z,102119.22
2022-12-03T11:48:53.495Z,102118.38
2022-12-03T11:51:22.531Z,102115.75
2022-12-03T11:53:51.056Z,102108.78
2022-12-03T11:56:20.456Z,102107.13
2022-12-03T11:58:47.350Z,102109.84
2022-12-03T12:01:15.617Z,102100.44
2022-12-03T12:03:48.061Z,102096.94
2022-12-03T12:06:23.073Z,102101.59
2022-12-03T12:08:49.412Z,102105.97
2022-12-03T12:11:30.251Z,102095.84
2022-12-03T12:13:59.611Z,102093.38
2022-12-03T12:16:41.324Z,102087.22
2022-12-03T12:19:27.477Z,102089.97
2022-12-03T12:21:54.519Z,102091.78
2022-12-03T12:24:40.014Z,102093.31
2022-12-03T12:27:14.682Z,102083.41
2022-12-03T12:29:42.482Z,102080.66
2022-12-03T12:32:08.776Z,102068.69
2022-12-03T12:34:37.925Z,102066.53
2022-12-03T12:37:10.456Z,102065.56
2022-12-03T12:39:36.833Z,102073.53
2022-12-03T12:42:19.095Z,102060.47
2022-12-03T12:44:45.448Z,102061.41
2022-12-03T12:47:12.492Z,102055.97
2022-12-03T12:49:38.870Z,102063.84
2022-12-03T12:52:06.061Z,102055.91
2022-12-03T12:54:32.441Z,102047.41
2022-12-03T12:56:58.766Z,102053.53
2022-12-03T12:59:25.826Z,102056.06
2022-12-03T13:01:52.382Z,102048.66
2022-12-03T13:04:22.529Z,102056.38
2022-12-03T13:06:52.437Z,102050.16
2022-12-03T13:09:21.427Z,102045.97
2022-12-03T13:11:53.447Z,102043.09
2022-12-03T13:14:21.909Z,102044.69
2022-12-03T13:16:50.256Z,102049.09
2022-12-03T13:19:21.498Z,102049.06
2022-12-03T13:21:48.526Z,102044.38
2022-12-03T13:24:37.852Z,102046.78
2022-12-03T13:27:16.228Z,102046.28
2022-12-03T13:29:43.427Z,102039.47
2022-12-03T13:32:13.711Z,102036.81
2022-12-03T13:34:40.532Z,102033.25
2022-12-03T13:37:13.997Z,102032.34
2022-12-03T13:39:50.613Z,102030.47
2022-12-03T13:42:42.130Z,102035.78
2022-12-03T13:45:14.544Z,102032.47
2022-12-03T13:47:45.206Z,102030.47
2022-12-03T13:50:33.999Z,102027.94
2022-12-03T13:53:20.187Z,102033.50
2022-12-03T13:55:53.300Z,102020.63
2022-12-03T13:58:19.891Z,102022.59
2022-12-03T14:00:46.393Z,102022.25
2022-12-03T14:03:12.972Z,102018.03
2022-12-03T14:05:39.360Z,102014.75
2022-12-03T14:08:06.120Z,102009.69
2022-12-03T14:10:32.710Z,102009.63
2022-12-03T14:12:59.125Z,102007.88
2022-12-03T14:15:26.340Z,102002.91
2022-12-03T14:17:52.827Z,102011.63
2022-12-03T14:20:20.235Z,102011.13
2022-12-03T14:22:46.629Z,102015.53
2022-12-03T14:25:13.025Z,102000.75
2022-12-03T14:27:39.411Z,102009.31
2022-12-03T14:30:06.515Z,102005.34
2022-12-03T14:32:32.895Z,102008.91
2022-12-03T14:34:59.254Z,102013.09
2022-12-03T14:37:25.592Z,102014.94
2022-12-03T14:39:52.668Z,102012.00
2022-12-03T14:42:19.264Z,102008.91
2022-12-03T14:44:48.238Z,102011.38
2022-12-03T14:47:19.210Z,102010.63
2022-12-03T14:49:45.897Z,102009.38
2022-12-03T14:52:12.952Z,102008.69
2022-12-03T14:54:42.300Z,102009.03
2022-12-03T14:57:11.299Z,102011.13
2022-12-03T14:59:37.848Z,102008.75
2022-12-03T15:02:04.332Z,102008.78
2022-12-03T15:04:30.826Z,102002.06
2022-12-03T15:06:57.178Z,102005.69
2022-12-03T15:09:23.574Z,102002.44
2022-12-03T15:11:49.906Z,102002.44
2022-12-03T15:14:16.245Z,102004.09
2022-12-03T15:16:42.645Z,101999.06
2022-12-03T15:19:09.345Z,102011.13
2022-12-03T15:21:35.743Z,101998.34
2022-12-03T15:24:03.011Z,102001.50
2022-12-03T15:26:29.811Z,101994.81
2022-12-03T15:28:56.130Z,101997.78
2022-12-03T15:31:22.504Z,102002.66
2022-12-03T15:33:48.893Z,102003.63
2022-12-03T15:36:15.362Z,101994.03
2022-12-03T15:38:41.717Z,101991.56
2022-12-03T15:41:26.602Z,101993.06
2022-12-03T15:43:53.217Z,101999.75
2022-12-03T15:46:20.304Z,102004.09
2022-12-03T15:48:47.639Z,102005.13
2022-12-03T15:51:14.272Z,102001.50
2022-12-03T15:53:40.671Z,102007.38
2022-12-03T15:56:07.824Z,102006.47
2022-12-03T15:58:34.696Z,102003.16
2022-12-03T16:01:01.189Z,102010.41
2022-12-03T16:03:27.778Z,102008.66
2022-12-03T16:05:54.140Z,102006.59
2022-12-03T16:08:20.877Z,101996.38
2022-12-03T16:10:47.463Z,102002.53
2022-12-03T16:13:13.799Z,102002.72
2022-12-03T16:15:40.481Z,101999.34
2022-12-03T16:18:06.936Z,101996.13
2022-12-03T16:20:33.300Z,101998.81
2022-12-03T16:22:59.614Z,101991.78
2022-12-03T16:25:25.979Z,101996.25
2022-12-03T16:27:52.342Z,101998.72
2022-12-03T16:30:18.976Z,101993.91
2022-12-03T16:32:45.383Z,102001.72
2022-12-03T16:35:11.744Z,101997.47
2022-12-03T16:37:38.161Z,102007.44
2022-12-03T16:40:05.018Z,102001.53
2022-12-03T16:42:31.414Z,101997.38
2022-12-03T16:44:57.764Z,102000.94
2022-12-03T16:47:26.013Z,101994.22
2022-12-03T16:49:56.095Z,101991.56
2022-12-03T16:52:22.955Z,101990.72
2022-12-03T16:54:49.517Z,101980.34
2022-12-03T16:57:16.322Z,101989.00
2022-12-03T16:59:42.749Z,101987.28
2022-12-03T17:02:10.922Z,101981.13
2022-12-03T17:04:37.386Z,101978.03
2022-12-03T17:07:03.857Z,101981.47
2022-12-03T17:09:30.177Z,101990.06
2022-12-03T17:11:56.594Z,101992.34
2022-12-03T17:14:22.933Z,101982.88
2022-12-03T17:16:49.309Z,101981.03
2022-12-03T17:19:16.213Z,101981.94
2022-12-03T17:21:42.771Z,101986.41
2022-12-03T17:24:09.170Z,101990.81
2022-12-03T17:26:35.498Z,101989.00
2022-12-03T17:29:01.878Z,101989.03
2022-12-03T17:31:28.369Z,101990.06
2022-12-03T17:33:57.373Z,101983.88
2022-12-03T17:36:24.784Z,101976.81
2022-12-03T17:38:51.353Z,101980.31
2022-12-03T17:41:17.782Z,101982.13
2022-12-03T17:43:44.128Z,101979.41
2022-12-03T17:46:10.495Z,101972.72
2022-12-03T17:48:36.818Z,101974.59
2022-12-03T17:51:03.231Z,101973.78
2022-12-03T17:53:29.578Z,101968.72
2022-12-03T17:55:55.966Z,101966.06
2022-12-03T17:58:22.385Z,101964.19
2022-12-03T18:00:48.834Z,101969.44
2022-12-03T18:03:15.157Z,101960.06
2022-12-03T18:05:41.642Z,101968.59
2022-12-03T18:08:08.220Z,101970.41
2022-12-03T18:10:34.755Z,101967.72
2022-12-03T18:13:02.365Z,101961.72
2022-12-03T18:15:29.283Z,101958.50
2022-12-03T18:17:55.622Z,101962.63
2022-12-03T18:20:21.942Z,101960.94
2022-12-03T18:22:48.422Z,101962.75
2022-12-03T18:25:14.861Z,101950.53
2022-12-03T18:27:41.314Z,101957.63
2022-12-03T18:30:08.217Z,101960.09
2022-12-03T18:32:34.548Z,101956.94
2022-12-03T18:35:00.899Z,101953.69
2022-12-03T18:37:28.590Z,101956.84
2022-12-03T18:39:56.329Z,101950.84
2022-12-03T18:42:23.701Z,101953.31
2022-12-03T18:44:52.453Z,101951.38
2022-12-03T18:47:20.308Z,101950.41
2022-12-03T18:49:46.985Z,101947.22
2022-12-03T18:52:15.544Z,101943.81
2022-12-03T18:54:42.658Z,101948.91
2022-12-03T18:57:09.210Z,101935.38
2022-12-03T18:59:35.694Z,101945.47
2022-12-03T19:02:02.266Z,101948.84
2022-12-03T19:04:28.643Z,101951.88
2022-12-03T19:06:55.043Z,101946.69
2022-12-03T19:09:21.545Z,101950.44
2022-12-03T19:11:48.132Z,101945.41
2022-12-03T19:14:14.603Z,101938.59
2022-12-03T19:16:41.702Z,101945.34
2022-12-03T19:19:09.222Z,101941.94
2022-12-03T19:21:36.203Z,101952.84
2022-12-03T19:26:54.613Z,101953.63
2022-12-03T19:29:24.530Z,101957.06
2022-12-03T19:31:52.068Z,101942.19
2022-12-03T19:34:19.199Z,101946.25
2022-12-03T19:36:46.174Z,101944.69
2022-12-03T19:39:12.507Z,101944.78
2022-12-03T19:41:43.505Z,101937.91
2022-12-03T19:44:17.459Z,101935.22
2022-12-03T19:46:44.483Z,101943.91
2022-12-03T19:49:11.139Z,101937.19
2022-12-03T19:51:37.918Z,101933.75
2022-12-03T19:54:06.344Z,101932.78
2022-12-03T19:56:33.450Z,101922.59
2022-12-03T19:59:00.026Z,101922.63
2022-12-03T20:01:31.503Z,101928.78
2022-12-03T20:03:59.606Z,101929.69
2022-12-03T20:06:29.290Z,101924.56
2022-12-03T20:09:00.946Z,101925.53
2022-12-03T20:11:30.316Z,101923.84
2022-12-03T20:13:59.076Z,101927.34
2022-12-03T20:16:26.494Z,101921.19
2022-12-03T20:18:57.793Z,101924.66
2022-12-03T20:21:24.830Z,101924.88
2022-12-03T20:23:51.158Z,101907.03
2022-12-03T20:26:19.848Z,101921.50
2022-12-03T20:28:50.280Z,101919.06
2022-12-03T20:31:20.506Z,101930.13
2022-12-03T20:33:49.109Z,101923.63
2022-12-03T20:36:17.940Z,101927.06
2022-12-03T20:38:44.516Z,101920.56
2022-12-03T20:41:13.733Z,101918.16
2022-12-03T20:43:40.525Z,101919.84
2022-12-03T20:46:15.679Z,101917.00
2022-12-03T20:48:43.244Z,101912.91
2022-12-03T20:51:12.357Z,101898.84
2022-12-03T20:53:39.372Z,101905.03
2022-12-03T20:56:06.545Z,101903.41
2022-12-03T20:58:34.001Z,101911.09
2022-12-03T21:01:15.933Z,101911.25
2022-12-03T21:03:43.432Z,101904.38
2022-12-03T21:06:10.446Z,101900.97
2022-12-03T21:08:41.539Z,101895.38
2022-12-03T21:11:13.776Z,101891.59
2022-12-03T21:13:41.568Z,101903.81
2022-12-03T21:16:10.482Z,101892.75
2022-12-03T21:18:37.188Z,101900.50
2022-12-03T21:21:04.968Z,101890.28
2022-12-03T21:23:32.715Z,101883.38
2022-12-03T21:26:10.662Z,101893.41
2022-12-03T21:28:43.026Z,101890.94
2022-12-03T21:31:12.918Z,101885.94
2022-12-03T21:33:39.701Z,101886.63
2022-12-03T21:36:07.041Z,101896.63
2022-12-03T21:38:34.118Z,101893.13
2022-12-03T21:41:01.293Z,101892.47
2022-12-03T21:43:28.361Z,101895.84
2022-12-03T21:45:54.808Z,101895.94
2022-12-03T21:48:21.550Z,101904.44
2022-12-03T21:51:03.338Z,101899.91
2022-12-03T21:53:32.030Z,101904.44
2022-12-03T21:55:59.459Z,101893.06
2022-12-03T21:58:25.981Z,101890.66
2022-12-03T22:00:52.459Z,101886.31
2022-12-03T22:03:18.868Z,101894.09
2022-12-03T22:05:45.237Z,101899.91
2022-12-03T22:08:13.574Z,101888.91
2022-12-03T22:10:39.995Z,101889.56
2022-12-03T22:13:06.346Z,101892.94
2022-12-03T22:15:32.759Z,101886.06
2022-12-03T22:17:59.192Z,101882.53
2022-12-03T22:20:26.678Z,101883.47
2022-12-03T22:22:52.989Z,101889.31
2022-12-03T22:25:19.360Z,101891.19
2022-12-03T22:27:45.680Z,101875.34
2022-12-03T22:30:12.115Z,101876.13
2022-12-03T22:32:38.500Z,101874.56
2022-12-03T22:35:05.621Z,101875.22
2022-12-03T22:37:32.751Z,101881.28
2022-12-03T22:39:59.123Z,101872.69
2022-12-03T22:42:25.532Z,101873.59
2022-12-03T22:44:51.918Z,101868.97
2022-12-03T22:47:18.271Z,101871.00
2022-12-03T22:49:44.590Z,101867.47
2022-12-03T22:52:10.980Z,101871.16
2022-12-03T22:54:37.384Z,101864.28
2022-12-03T22:57:03.874Z,101866.22
2022-12-03T22:59:30.370Z,101867.97
2022-12-03T23:01:56.738Z,101866.81
2022-12-03T23:04:23.223Z,101863.50
2022-12-03T23:06:49.640Z,101868.03
2022-12-03T23:09:16.703Z,101865.47
2022-12-03T23:11:45.353Z,101857.69
2022-12-03T23:14:12.351Z,101868.94
2022-12-03T23:16:39.997Z,101867.00
2022-12-03T23:19:06.596Z,101863.81
2022-12-03T23:21:34.640Z,101861.84
2022-12-03T23:24:02.701Z,101856.41
2022-12-03T23:26:29.362Z,101872.91
2022-12-03T23:28:56.563Z,101862.47
2022-12-03T23:31:26.218Z,101867.59
2022-12-03T23:33:54.326Z,101860.03
2022-12-03T23:36:21.756Z,101858.28
2022-12-03T23:38:48.303Z,101854.84
2022-12-03T23:41:17.736Z,101856.13
2022-12-03T23:43:44.170Z,101855.63
2022-12-03T23:46:14.753Z,101852.84
2022-12-03T23:48:42.093Z,101856.19
2022-12-03T23:51:11.419Z,101852.78
2022-12-03T23:53:38.668Z,101852.13
2022-12-03T23:56:10.350Z,101849.47
2022-12-03T23:58:36.821Z,101849.63
